Time;durP1;ratioP1;P1;durP2;ratioP2;P2;SDS_P1;SDS_P2;PMS_P1;PMS_P2;Temp;Humidity;BMP_temperature;BMP_pressure;BME280_temperature;BME280_humidity;BME280_pressure;Samples;Min_cycle;Max_cycle;Signal;HPM_P1;HPM_P2
2022/11/08 00:01:43;;;;;;;23.73;19.35;;;23.50;86.50;;;;;;1739100;81;21157;-85
2022/11/08 00:04:16;;;;;;;24.70;20.62;;;23.50;86.50;;;;;;1748581;80;21131;-85
2022/11/08 00:15:12;;;;;;;28.15;20.92;;;23.60;87.20;;;;;;1744738;80;21226;-86
2022/11/08 00:17:43;;;;;;;27.73;21.93;;;23.60;87.50;;;;;;1756496;80;21188;-85
2022/11/08 00:20:14;;;;;;;22.87;18.48;;;23.70;87.60;;;;;;1760085;80;21175;-85
2022/11/08 00:22:45;;;;;;;25.57;19.48;;;23.70;87.40;;;;;;1767726;81;21187;-84
2022/11/08 00:25:15;;;;;;;24.25;20.05;;;23.70;87.30;;;;;;1756270;80;21632;-84
2022/11/08 00:27:46;;;;;;;26.37;21.27;;;23.70;87.60;;;;;;1750277;80;21152;-87
2022/11/08 00:30:17;;;;;;;22.90;19.02;;;23.70;87.80;;;;;;1764967;80;21104;-87
2022/11/08 00:32:48;;;;;;;23.07;17.98;;;23.70;87.50;;;;;;1747695;80;21175;-85
2022/11/08 00:35:19;;;;;;;32.15;22.60;;;23.70;87.00;;;;;;1729998;81;21640;-85
2022/11/08 00:37:49;;;;;;;23.07;18.73;;;23.80;86.90;;;;;;1747905;80;21235;-86
2022/11/08 00:40:21;;;;;;;22.87;18.82;;;23.80;86.50;;;;;;1750927;80;21262;-85
2022/11/08 00:42:52;;;;;;;22.87;18.52;;;23.90;86.60;;;;;;1749849;80;21203;-85
2022/11/08 00:45:22;;;;;;;23.47;17.60;;;23.90;86.30;;;;;;1741626;81;21192;-85
2022/11/08 00:47:53;;;;;;;22.65;19.05;;;23.90;85.80;;;;;;1705556;82;21247;-86
2022/11/08 00:50:24;;;;;;;21.80;18.48;;;23.90;85.60;;;;;;1680479;84;21290;-85
2022/11/08 00:52:55;;;;;;;21.87;18.62;;;24.00;85.90;;;;;;1747861;81;21190;-85
2022/11/08 00:55:28;;;;;;;20.23;17.70;;;24.00;85.30;;;;;;1738974;81;21188;-84
2022/11/08 00:58:11;;;;;;;24.17;18.97;;;24.00;85.00;;;;;;1721665;81;21320;-79
2022/11/08 01:00:42;;;;;;;21.80;18.42;;;24.10;85.10;;;;;;1732706;81;21128;-76
2022/11/08 01:03:19;;;;;;;33.60;19.35;;;24.10;85.10;;;;;;1733200;81;21223;-77
2022/11/08 01:05:50;;;;;;;;;;;24.10;85.00;;;;;;1733177;81;21614;-77
2022/11/08 01:08:23;;;;;;;33.53;19.73;;;24.20;84.80;;;;;;1742698;81;20144;-74
2022/11/08 01:10:54;;;;;;;22.30;19.17;;;24.20;84.90;;;;;;1738115;81;21206;-78
2022/11/08 01:13:25;;;;;;;46.30;20.25;;;24.20;84.70;;;;;;1757540;81;21179;-76
2022/11/08 01:15:56;;;;;;;51.55;19.57;;;24.30;84.80;;;;;;1739211;81;21309;-76
2022/11/08 01:18:27;;;;;;;71.72;22.70;;;24.30;84.80;;;;;;1738427;80;21234;-79
2022/11/08 01:21:02;;;;;;;22.02;17.30;;;24.40;84.80;;;;;;1738632;81;21684;-76
2022/11/08 01:23:33;;;;;;;23.27;18.70;;;24.40;84.80;;;;;;1743045;81;21113;-78
2022/11/08 01:26:10;;;;;;;24.05;18.55;;;24.40;85.10;;;;;;1746740;81;21301;-76
2022/11/08 01:31:32;;;;;;;30.57;18.80;;;24.50;84.80;;;;;;1742255;81;21739;-77
2022/11/08 01:34:04;;;;;;;24.32;18.65;;;24.50;84.80;;;;;;1740460;81;21724;-77
2022/11/08 01:36:35;;;;;;;24.70;18.80;;;24.60;85.00;;;;;;1704561;82;21267;-76
2022/11/08 01:39:06;;;;;;;24.47;18.42;;;24.60;84.80;;;;;;1729746;81;21119;-76
2022/11/08 01:41:40;;;;;;;21.97;18.82;;;24.60;84.80;;;;;;1731487;81;21176;-74
2022/11/08 01:44:13;;;;;;;22.32;18.52;;;24.70;84.80;;;;;;1746030;81;21649;-75
2022/11/08 01:46:48;;;;;;;24.27;19.20;;;24.80;84.80;;;;;;1727369;81;21223;-74
2022/11/08 01:49:28;;;;;;;22.65;18.20;;;24.80;84.70;;;;;;1726749;83;21608;-74
2022/11/08 01:52:04;;;;;;;28.95;20.30;;;24.90;84.90;;;;;;1731726;81;21602;-78
2022/11/08 01:57:48;;;;;;;23.27;19.20;;;24.90;84.50;;;;;;1718418;82;21579;-76
2022/11/08 02:00:19;;;;;;;27.50;19.40;;;25.00;84.10;;;;;;1746622;81;21099;-74
2022/11/08 02:02:53;;;;;;;27.60;19.15;;;25.00;83.40;;;;;;1745323;81;21185;-75
2022/11/08 02:05:24;;;;;;;20.30;18.07;;;25.10;83.60;;;;;;1712959;82;21484;-76
2022/11/08 02:08:06;;;;;;;25.65;19.05;;;25.10;82.90;;;;;;1746819;80;21217;-76
2022/11/08 02:10:40;;;;;;;27.13;20.12;;;25.10;82.60;;;;;;1750430;81;21613;-77
2022/11/08 02:13:14;;;;;;;22.65;19.23;;;25.20;82.70;;;;;;1749148;81;21263;-75
2022/11/08 02:15:46;;;;;;;22.62;19.48;;;25.20;81.70;;;;;;1745890;80;21275;-76
2022/11/08 02:18:18;;;;;;;20.35;18.15;;;25.30;80.80;;;;;;1762400;81;21167;-76
2022/11/08 02:21:10;;;;;;;20.12;17.77;;;25.30;80.00;;;;;;1711042;83;21198;-76
2022/11/08 02:23:56;;;;;;;22.58;16.87;;;25.40;79.70;;;;;;1731153;80;21660;-76
2022/11/08 02:26:31;;;;;;;22.65;18.00;;;25.50;79.60;;;;;;1752532;80;21178;-76
2022/11/08 02:29:20;;;;;;;21.37;17.57;;;25.50;79.20;;;;;;1748241;81;22242;-76
2022/11/08 02:31:51;;;;;;;19.57;16.35;;;25.60;78.40;;;;;;1753045;80;21849;-75
2022/11/08 02:34:25;;;;;;;21.15;17.85;;;25.80;77.40;;;;;;1746878;80;21192;-77
2022/11/08 02:36:57;;;;;;;19.90;17.57;;;25.80;77.40;;;;;;1749550;81;21211;-76
2022/11/08 02:39:28;;;;;;;19.37;16.87;;;25.90;76.30;;;;;;1734731;82;21171;-75
2022/11/08 02:42:14;;;;;;;20.80;17.37;;;25.90;76.50;;;;;;1750322;80;21610;-74
2022/11/08 02:45:05;;;;;;;22.40;16.35;;;26.00;76.90;;;;;;1737630;82;21136;-77
2022/11/08 02:47:36;;;;;;;19.82;15.23;;;26.10;75.70;;;;;;1735174;82;21152;-77
2022/11/08 02:50:08;;;;;;;17.87;15.80;;;26.20;72.30;;;;;;1741567;81;21266;-75
2022/11/08 02:52:39;;;;;;;18.35;14.95;;;26.30;72.30;;;;;;1736179;82;21235;-77
2022/11/08 02:55:10;;;;;;;21.10;16.55;;;26.30;71.80;;;;;;1742832;82;21220;-75
2022/11/08 02:57:41;;;;;;;19.10;15.45;;;26.40;71.50;;;;;;1742554;82;21245;-76
2022/11/08 03:00:13;;;;;;;17.62;15.70;;;26.50;70.70;;;;;;1731615;81;21143;-76
2022/11/08 03:02:50;;;;;;;20.52;15.30;;;26.60;70.30;;;;;;1735193;81;21116;-75
2022/11/08 03:05:19;;;;;;;20.88;15.78;;;26.70;70.50;;;;;;1725989;81;21180;-76
2022/11/08 03:07:50;;;;;;;19.85;15.75;;;26.80;71.60;;;;;;1742225;81;21200;-75
2022/11/08 03:10:22;;;;;;;19.27;16.10;;;26.80;71.30;;;;;;1724590;82;21282;-77
2022/11/08 03:13:04;;;;;;;19.25;16.77;;;26.80;70.70;;;;;;1723140;81;21259;-77
2022/11/08 03:15:34;;;;;;;19.92;15.83;;;26.90;71.40;;;;;;1742514;81;21160;-78
2022/11/08 03:18:06;;;;;;;18.67;15.95;;;26.90;71.10;;;;;;1728563;82;21198;-79
2022/11/08 03:20:37;;;;;;;19.75;16.87;;;27.00;70.90;;;;;;1738599;81;21286;-79
2022/11/08 03:23:11;;;;;;;18.90;15.85;;;27.10;70.60;;;;;;1708216;83;21171;-79
2022/11/08 03:25:42;;;;;;;20.17;16.57;;;27.20;71.20;;;;;;1738277;81;21151;-79
2022/11/08 03:28:13;;;;;;;18.92;16.10;;;27.30;71.10;;;;;;1740900;82;21186;-79
2022/11/08 03:30:46;;;;;;;18.90;16.27;;;27.40;71.20;;;;;;1735012;81;21123;-78
2022/11/08 03:33:17;;;;;;;20.15;16.70;;;27.50;71.30;;;;;;1736688;82;21302;-76
2022/11/08 03:35:49;;;;;;;22.75;16.93;;;27.60;70.00;;;;;;1744321;82;21212;-76
2022/11/08 03:38:20;;;;;;;19.73;16.17;;;27.60;70.00;;;;;;1699611;82;21160;-77
2022/11/08 03:40:51;;;;;;;19.57;17.07;;;27.70;69.40;;;;;;1733490;81;21202;-78
2022/11/08 03:43:22;;;;;;;23.27;15.80;;;27.80;69.40;;;;;;1730283;81;21255;-77
2022/11/08 03:45:54;;;;;;;18.55;16.57;;;27.90;69.60;;;;;;1748341;80;21112;-77
2022/11/08 03:48:24;;;;;;;21.12;16.00;;;27.90;69.50;;;;;;1770880;79;21543;-77
2022/11/08 03:50:55;;;;;;;18.02;15.58;;;28.00;68.60;;;;;;1768167;79;21165;-77
2022/11/08 03:53:26;;;;;;;19.73;14.80;;;28.10;67.60;;;;;;1767869;79;21155;-76
2022/11/08 03:56:01;;;;;;;18.32;15.00;;;28.20;66.10;;;;;;1773104;79;21180;-77
2022/11/08 03:58:34;;;;;;;20.37;16.00;;;28.20;67.40;;;;;;1770834;79;21102;-77
2022/11/08 04:01:06;;;;;;;20.72;16.42;;;28.30;67.10;;;;;;1772066;80;21191;-77
2022/11/08 04:03:37;;;;;;;17.32;15.55;;;28.40;67.20;;;;;;1769281;79;21456;-76
2022/11/08 04:06:09;;;;;;;18.92;15.85;;;28.40;67.30;;;;;;1773677;80;21107;-76
2022/11/08 04:08:40;;;;;;;18.57;16.17;;;28.50;66.40;;;;;;1770736;81;21242;-75
2022/11/08 04:16:37;;;;;;;18.65;15.88;;;28.60;66.50;;;;;;1776012;79;21280;-75
2022/11/08 04:21:58;;;;;;;19.67;16.23;;;28.70;66.50;;;;;;1778684;80;21630;-76
2022/11/08 04:24:29;;;;;;;19.35;16.97;;;28.70;66.60;;;;;;1777499;79;21167;-76
2022/11/08 04:27:01;;;;;;;22.00;15.83;;;28.70;67.00;;;;;;1775268;79;21552;-74
2022/11/08 04:29:32;;;;;;;18.95;15.35;;;28.90;66.70;;;;;;1774242;79;21190;-79
2022/11/08 04:32:03;;;;;;;18.35;16.20;;;29.00;65.70;;;;;;1743100;82;21149;-77
2022/11/08 04:34:34;;;;;;;20.92;16.07;;;29.00;65.50;;;;;;1770269;80;21568;-77
2022/11/08 04:37:05;;;;;;;18.75;15.70;;;29.10;64.70;;;;;;1756215;81;21211;-76
2022/11/08 04:39:36;;;;;;;19.48;15.55;;;29.10;65.20;;;;;;1767343;81;21120;-75
2022/11/08 04:42:07;;;;;;;18.73;16.05;;;29.20;65.20;;;;;;1769211;81;21681;-75
2022/11/08 04:44:38;;;;;;;18.77;15.53;;;29.30;65.00;;;;;;1770383;80;21246;-76
2022/11/08 04:47:12;;;;;;;20.72;16.30;;;29.40;65.10;;;;;;1765427;81;21708;-82
2022/11/08 04:49:43;;;;;;;20.55;16.35;;;29.40;64.40;;;;;;1766542;81;21206;-83
2022/11/08 04:52:16;;;;;;;19.48;15.32;;;29.40;63.30;;;;;;1767423;81;21677;-81
2022/11/08 04:54:47;;;;;;;19.35;15.93;;;;;;;;;;1779076;80;21243;-82
2022/11/08 04:57:17;;;;;;;18.80;15.83;;;29.70;60.30;;;;;;1764623;81;21100;-82
2022/11/08 04:59:51;;;;;;;20.15;16.75;;;29.70;61.60;;;;;;1775308;81;21237;-85
2022/11/08 05:02:22;;;;;;;19.70;16.27;;;29.80;62.00;;;;;;1769369;80;21290;-82
2022/11/08 05:04:56;;;;;;;18.20;16.27;;;29.90;62.50;;;;;;1778087;80;21191;-81
2022/11/08 05:07:28;;;;;;;18.17;15.85;;;29.80;61.50;;;;;;1773972;80;21231;-83
2022/11/08 05:09:59;;;;;;;18.62;15.60;;;29.80;60.40;;;;;;1773500;80;21229;-82
2022/11/08 05:12:31;;;;;;;17.60;15.70;;;29.80;61.30;;;;;;1772071;81;21200;-81
2022/11/08 05:15:02;;;;;;;21.55;16.80;;;29.90;61.30;;;;;;1776718;80;21194;-82
2022/11/08 05:17:33;;;;;;;18.12;15.58;;;29.90;61.20;;;;;;1768294;81;21160;-81
2022/11/08 05:25:47;;;;;;;21.25;14.95;;;30.10;60.20;;;;;;1771422;81;21096;-82
2022/11/08 05:28:18;;;;;;;17.80;15.55;;;30.20;60.70;;;;;;1767264;80;21699;-81
2022/11/08 05:30:56;;;;;;;17.77;15.88;;;30.30;59.70;;;;;;1769364;79;21186;-82
2022/11/08 05:33:26;;;;;;;17.60;15.03;;;30.40;59.40;;;;;;1772564;81;21694;-83
2022/11/08 05:35:59;;;;;;;18.57;15.43;;;30.40;59.00;;;;;;1771026;80;21108;-81
2022/11/08 05:38:31;;;;;;;18.95;15.55;;;30.40;58.70;;;;;;1756082;80;21258;-81
2022/11/08 05:41:07;;;;;;;17.15;14.60;;;30.40;58.80;;;;;;1769823;81;21274;-81
2022/11/08 05:43:38;;;;;;;16.35;14.58;;;30.40;59.00;;;;;;1764169;81;21180;-81
2022/11/08 05:46:09;;;;;;;18.07;14.73;;;30.50;58.30;;;;;;1775190;79;21120;-81
2022/11/08 05:48:45;;;;;;;17.67;14.95;;;30.50;57.50;;;;;;1775451;79;21191;-82
2022/11/08 05:51:17;;;;;;;17.62;15.13;;;30.50;58.20;;;;;;1773687;81;21107;-79
2022/11/08 05:53:49;;;;;;;18.20;15.15;;;30.50;58.50;;;;;;1767583;81;21139;-81
2022/11/08 05:56:22;;;;;;;17.15;14.40;;;30.60;58.40;;;;;;1756192;81;21112;-82
2022/11/08 05:58:53;;;;;;;18.25;15.05;;;30.60;57.20;;;;;;1740288;82;21168;-82
2022/11/08 06:01:27;;;;;;;16.17;14.53;;;30.70;57.00;;;;;;1764982;81;21147;-82
2022/11/08 06:03:59;;;;;;;18.17;14.38;;;30.70;57.10;;;;;;1775459;81;21154;-80
2022/11/08 06:06:33;;;;;;;18.20;15.03;;;30.80;57.20;;;;;;1774165;81;21135;-81
2022/11/08 06:09:04;;;;;;;16.42;14.45;;;30.90;57.90;;;;;;1774275;81;21226;-82
2022/11/08 06:11:35;;;;;;;18.80;14.38;;;31.00;55.60;;;;;;1774644;81;21623;-81
2022/11/08 06:14:05;;;;;;;18.57;14.38;;;31.00;56.20;;;;;;1774786;81;21155;-81
2022/11/08 06:16:36;;;;;;;19.92;15.10;;;31.00;56.40;;;;;;1775925;80;21218;-81
2022/11/08 06:19:07;;;;;;;17.42;15.45;;;31.00;55.60;;;;;;1768546;81;21183;-79
2022/11/08 06:21:38;;;;;;;16.02;14.33;;;31.00;55.80;;;;;;1765668;81;21222;-82
2022/11/08 06:24:09;;;;;;;16.02;14.15;;;31.00;55.20;;;;;;1774321;81;21217;-82
2022/11/08 06:26:40;;;;;;;16.82;14.03;;;31.00;55.00;;;;;;1774025;81;21182;-82
2022/11/08 06:29:11;;;;;;;19.85;14.28;;;31.10;54.50;;;;;;1774528;81;21163;-82
2022/11/08 06:31:42;;;;;;;16.42;13.80;;;31.10;55.50;;;;;;1774118;81;21163;-82
2022/11/08 06:34:13;;;;;;;15.88;13.62;;;31.10;55.20;;;;;;1774647;81;21214;-82
2022/11/08 06:36:43;;;;;;;16.30;14.23;;;31.10;55.00;;;;;;1774384;80;21202;-81
2022/11/08 06:39:15;;;;;;;19.60;14.30;;;31.10;55.20;;;;;;1761702;81;21092;-82
2022/11/08 06:41:48;;;;;;;15.90;14.18;;;31.10;54.60;;;;;;1763866;81;21253;-81
2022/11/08 06:44:19;;;;;;;16.75;14.05;;;31.10;54.60;;;;;;1761410;80;21233;-79
2022/11/08 06:46:50;;;;;;;17.37;14.07;;;31.10;54.50;;;;;;1766095;80;21271;-81
2022/11/08 06:49:22;;;;;;;16.20;14.10;;;31.10;54.10;;;;;;1769238;81;21125;-82
2022/11/08 06:51:54;;;;;;;16.77;14.23;;;31.10;54.30;;;;;;1761325;80;21612;-82
2022/11/08 06:54:24;;;;;;;15.72;13.58;;;31.10;53.80;;;;;;1764722;80;21140;-81
2022/11/08 06:56:59;;;;;;;17.87;14.07;;;31.10;54.10;;;;;;1764480;80;21185;-82
2022/11/08 06:59:29;;;;;;;16.30;14.13;;;31.10;54.50;;;;;;1776272;80;21099;-81
2022/11/08 07:01:59;;;;;;;21.37;14.33;;;31.10;54.00;;;;;;1779837;80;21152;-83
2022/11/08 07:04:30;;;;;;;18.25;14.60;;;31.10;54.20;;;;;;1768238;81;21180;-83
2022/11/08 07:07:01;;;;;;;17.67;15.23;;;31.10;54.30;;;;;;1769500;80;21514;-83
2022/11/08 07:09:32;;;;;;;17.60;14.40;;;31.10;55.20;;;;;;1770392;81;21221;-82
2022/11/08 07:12:03;;;;;;;17.15;15.25;;;31.00;54.90;;;;;;1780272;81;21206;-82
2022/11/08 07:14:34;;;;;;;24.30;14.38;;;31.00;55.30;;;;;;1779302;81;21183;-82
2022/11/08 07:17:05;;;;;;;16.70;14.30;;;30.90;55.40;;;;;;1777338;81;21507;-81
2022/11/08 07:19:36;;;;;;;20.92;15.60;;;30.90;55.80;;;;;;1780317;80;21532;-82
2022/11/08 07:22:07;;;;;;;18.48;14.40;;;30.90;55.30;;;;;;1768620;81;21225;-81
2022/11/08 07:24:38;;;;;;;17.02;14.20;;;30.90;54.80;;;;;;1772090;80;21197;-81
2022/11/08 07:27:09;;;;;;;17.32;13.85;;;30.90;55.20;;;;;;1770144;80;21159;-81
2022/11/08 07:29:40;;;;;;;16.55;14.78;;;31.00;55.30;;;;;;1773740;81;21151;-81
2022/11/08 07:32:11;;;;;;;16.17;14.43;;;31.00;55.20;;;;;;1766764;80;21169;-82
2022/11/08 07:34:42;;;;;;;16.62;13.88;;;31.00;54.60;;;;;;1777199;80;21113;-84
2022/11/08 07:37:13;;;;;;;17.00;14.55;;;31.10;54.70;;;;;;1775013;80;21109;-82
2022/11/08 07:39:43;;;;;;;17.20;15.40;;;31.10;54.70;;;;;;1772680;80;21153;-81
2022/11/08 07:42:14;;;;;;;19.17;14.87;;;31.10;55.10;;;;;;1771952;80;21121;-83
2022/11/08 07:44:45;;;;;;;17.85;14.13;;;31.00;55.10;;;;;;1774317;81;21204;-82
2022/11/08 07:47:16;;;;;;;21.37;15.85;;;31.00;54.50;;;;;;1769629;80;21581;-81
2022/11/08 07:49:47;;;;;;;18.48;15.32;;;31.00;54.70;;;;;;1773052;81;21222;-83
2022/11/08 07:52:18;;;;;;;17.62;14.30;;;31.00;54.70;;;;;;1767280;80;21198;-83
2022/11/08 07:54:49;;;;;;;17.98;14.40;;;31.00;54.70;;;;;;1770036;80;21199;-84
2022/11/08 07:57:20;;;;;;;17.20;15.30;;;31.00;55.60;;;;;;1766144;81;21127;-83
2022/11/08 07:59:51;;;;;;;16.85;14.65;;;30.80;55.00;;;;;;1776992;81;21597;-85
2022/11/08 08:02:23;;;;;;;17.37;14.58;;;30.80;55.50;;;;;;1775516;81;21144;-83
2022/11/08 08:04:54;;;;;;;15.80;14.18;;;30.80;55.80;;;;;;1765752;80;21159;-84
2022/11/08 08:07:25;;;;;;;18.20;15.03;;;30.80;55.30;;;;;;1759731;81;21584;-83
2022/11/08 08:09:56;;;;;;;20.55;15.65;;;30.80;55.80;;;;;;1772525;80;21190;-84
2022/11/08 08:12:27;;;;;;;17.55;14.20;;;30.80;56.10;;;;;;1773771;81;21158;-83
2022/11/08 08:14:58;;;;;;;19.07;16.02;;;30.80;55.20;;;;;;1776346;81;21266;-83
2022/11/08 08:17:29;;;;;;;17.80;14.38;;;30.80;55.40;;;;;;1777135;81;21147;-83
2022/11/08 08:19:59;;;;;;;16.85;15.00;;;30.80;55.50;;;;;;1771489;81;21307;-83
2022/11/08 08:22:30;;;;;;;19.98;15.40;;;30.80;55.80;;;;;;1767448;80;21196;-84
2022/11/08 08:25:01;;;;;;;17.12;15.00;;;30.80;55.70;;;;;;1756991;81;21179;-82
2022/11/08 08:27:32;;;;;;;16.42;14.73;;;30.80;55.90;;;;;;1766082;80;21155;-83
2022/11/08 08:30:03;;;;;;;20.97;15.23;;;30.80;56.70;;;;;;1764321;80;21285;-82
2022/11/08 08:32:35;;;;;;;16.23;14.47;;;30.80;56.00;;;;;;1762459;80;21588;-82
2022/11/08 08:35:06;;;;;;;17.45;15.60;;;30.80;56.40;;;;;;1743817;81;21197;-84
2022/11/08 08:37:37;;;;;;;16.77;15.03;;;30.80;56.30;;;;;;1771039;81;21214;-83
2022/11/08 08:40:09;;;;;;;16.93;15.20;;;30.70;55.90;;;;;;1767386;81;21224;-83
2022/11/08 08:42:40;;;;;;;18.82;15.32;;;30.80;56.00;;;;;;1772647;80;21155;-84
2022/11/08 08:45:11;;;;;;;18.32;14.65;;;30.70;56.10;;;;;;1766233;80;21673;-83
2022/11/08 08:47:43;;;;;;;17.57;15.65;;;30.70;56.30;;;;;;1767843;80;21201;-83
2022/11/08 08:50:14;;;;;;;22.77;15.80;;;30.60;56.60;;;;;;1766053;80;21219;-85
2022/11/08 08:52:45;;;;;;;19.90;14.98;;;30.60;56.20;;;;;;1763059;80;21152;-83
2022/11/08 08:55:16;;;;;;;17.20;14.80;;;30.50;56.70;;;;;;1766600;81;21175;-81
2022/11/08 08:57:48;;;;;;;17.98;15.10;;;30.50;56.60;;;;;;1764949;80;21691;-84
2022/11/08 09:00:19;;;;;;;20.70;16.07;;;30.50;56.60;;;;;;1771162;80;21172;-85
2022/11/08 09:02:51;;;;;;;18.98;15.28;;;30.50;56.70;;;;;;1772314;79;21705;-83
2022/11/08 09:05:22;;;;;;;18.75;15.50;;;30.50;56.60;;;;;;1770681;80;21171;-84
2022/11/08 09:07:56;;;;;;;16.90;15.13;;;30.50;56.60;;;;;;1765318;80;21159;-85
2022/11/08 09:10:27;;;;;;;18.62;15.53;;;30.50;56.40;;;;;;1773035;81;21176;-84
2022/11/08 09:12:58;;;;;;;18.00;15.85;;;30.40;56.70;;;;;;1767980;80;21139;-84
2022/11/08 09:15:29;;;;;;;19.50;16.52;;;30.40;57.10;;;;;;1769557;80;21565;-85
2022/11/08 09:17:59;;;;;;;19.23;15.65;;;30.30;57.30;;;;;;1767796;80;21157;-84
2022/11/08 09:20:30;;;;;;;19.05;15.55;;;30.30;57.30;;;;;;1762708;80;21182;-83
2022/11/08 09:23:04;;;;;;;16.35;14.75;;;30.30;57.30;;;;;;1772624;80;21113;-85
2022/11/08 09:25:35;;;;;;;17.37;15.00;;;30.20;57.10;;;;;;1772478;81;21286;-84
2022/11/08 09:28:06;;;;;;;18.55;15.88;;;30.20;57.10;;;;;;1763924;79;21175;-83
2022/11/08 09:30:38;;;;;;;20.02;16.25;;;30.10;56.90;;;;;;1774712;80;21156;-84
2022/11/08 09:33:09;;;;;;;22.42;16.20;;;30.10;57.20;;;;;;1768563;80;21182;-84
2022/11/08 09:35:45;;;;;;;19.95;15.18;;;30.00;57.00;;;;;;1778727;80;21164;-83
2022/11/08 09:38:16;;;;;;;19.12;15.95;;;30.00;57.10;;;;;;1778493;81;21161;-83
2022/11/08 09:41:05;;;;;;;22.80;15.32;;;30.00;56.90;;;;;;1778726;81;21082;-84
2022/11/08 09:43:45;;;;;;;18.67;16.35;;;29.90;57.10;;;;;;1748392;81;21218;-84
2022/11/08 09:46:30;;;;;;;18.25;16.10;;;29.90;57.20;;;;;;1779017;80;21153;-83
2022/11/08 09:49:03;;;;;;;19.70;15.45;;;29.90;57.70;;;;;;1767526;80;21146;-83
2022/11/08 09:51:36;;;;;;;22.70;15.80;;;29.80;57.80;;;;;;1769998;81;21230;-84
2022/11/08 09:54:09;;;;;;;20.97;16.62;;;29.80;57.90;;;;;;1776305;80;21213;-85
2022/11/08 09:56:42;;;;;;;20.55;15.88;;;29.80;58.20;;;;;;1766092;80;21580;-84
2022/11/08 09:59:36;;;;;;;19.50;15.98;;;29.80;58.40;;;;;;1771137;80;21175;-84
2022/11/08 10:02:19;;;;;;;21.48;16.07;;;29.80;59.10;;;;;;1764617;81;21156;-83
2022/11/08 10:04:58;;;;;;;18.95;16.73;;;29.70;58.30;;;;;;1771173;81;21139;-83
2022/11/08 10:07:34;;;;;;;19.45;15.90;;;29.70;58.50;;;;;;1775460;80;21150;-84
2022/11/08 10:10:24;;;;;;;23.57;17.00;;;29.60;58.60;;;;;;1767383;81;21102;-85
2022/11/08 10:13:23;;;;;;;20.10;17.37;;;29.60;58.80;;;;;;1760785;81;21266;-84
2022/11/08 10:15:57;;;;;;;24.20;16.70;;;29.60;58.70;;;;;;1762944;81;21203;-82
2022/11/08 10:18:37;;;;;;;20.43;16.75;;;29.50;59.00;;;;;;1761830;80;21171;-84
2022/11/08 10:21:19;;;;;;;18.73;16.73;;;29.50;59.30;;;;;;1763873;80;21151;-82
2022/11/08 10:23:58;;;;;;;19.30;16.02;;;29.50;59.50;;;;;;1731952;82;21673;-82
2022/11/08 10:26:34;;;;;;;23.32;17.67;;;29.40;59.70;;;;;;1742738;82;21242;-82
2022/11/08 10:29:11;;;;;;;23.75;18.15;;;29.40;59.80;;;;;;1731411;82;21610;-82
2022/11/08 10:31:43;;;;;;;22.42;17.57;;;29.30;59.80;;;;;;1765647;80;21225;-83
2022/11/08 10:34:16;;;;;;;28.40;18.95;;;29.30;60.10;;;;;;1768883;80;21150;-82
2022/11/08 10:36:53;;;;;;;26.73;18.25;;;29.30;60.40;;;;;;1771100;80;21102;-84
2022/11/08 10:39:27;;;;;;;26.57;19.77;;;29.30;60.80;;;;;;1761969;81;21217;-84
2022/11/08 10:42:06;;;;;;;27.52;19.10;;;29.20;61.00;;;;;;1771804;80;21159;-83
2022/11/08 10:44:37;;;;;;;24.72;17.70;;;29.20;61.10;;;;;;1773481;80;21810;-83
2022/11/08 10:47:26;;;;;;;22.70;18.27;;;29.20;61.30;;;;;;1775070;80;21260;-82
2022/11/08 10:49:57;;;;;;;23.12;18.30;;;29.10;61.30;;;;;;1771185;80;21718;-84
2022/11/08 10:52:40;;;;;;;30.60;19.32;;;29.10;61.50;;;;;;1776616;81;21175;-83
2022/11/08 10:55:19;;;;;;;26.27;18.95;;;29.00;61.50;;;;;;1779590;80;21165;-84
2022/11/08 10:57:50;;;;;;;23.67;19.35;;;29.00;61.70;;;;;;1771905;80;21152;-85
2022/11/08 11:00:24;;;;;;;24.37;18.90;;;28.90;61.70;;;;;;1766138;80;21159;-81
2022/11/08 11:03:12;;;;;;;25.35;19.32;;;28.90;61.90;;;;;;1779256;80;21228;-84
2022/11/08 11:05:57;;;;;;;24.00;19.17;;;28.90;62.20;;;;;;1779356;81;21165;-82
2022/11/08 11:08:28;;;;;;;26.97;18.80;;;28.80;62.30;;;;;;1779309;80;21113;-83
2022/11/08 11:11:19;;;;;;;22.75;18.98;;;28.80;62.40;;;;;;1769111;80;21106;-82
2022/11/08 11:14:09;;;;;;;23.85;18.57;;;28.80;62.70;;;;;;1781254;80;21196;-81
2022/11/08 11:17:06;;;;;;;25.10;19.35;;;28.70;62.70;;;;;;1761053;80;21245;-82
2022/11/08 11:19:36;;;;;;;25.48;19.52;;;28.70;62.90;;;;;;1752270;82;21162;-82
2022/11/08 11:22:08;;;;;;;25.43;19.67;;;28.70;63.20;;;;;;1769491;80;21095;-84
2022/11/08 11:24:49;;;;;;;25.97;19.27;;;28.60;63.20;;;;;;1777606;81;21220;-83
2022/11/08 11:27:28;;;;;;;22.80;19.05;;;28.70;63.60;;;;;;1760719;81;21119;-82
2022/11/08 11:30:23;;;;;;;22.93;18.75;;;28.60;63.70;;;;;;1768934;81;21104;-82
2022/11/08 11:33:25;;;;;;;35.45;25.65;;;28.60;63.90;;;;;;1765060;80;21243;-83
2022/11/08 11:36:07;;;;;;;34.00;23.40;;;28.60;64.30;;;;;;1772435;81;21259;-82
2022/11/08 11:38:42;;;;;;;28.67;22.25;;;28.50;64.70;;;;;;1779627;80;21164;-81
2022/11/08 11:41:17;;;;;;;34.85;23.38;;;28.50;65.10;;;;;;1782017;80;21118;-81
2022/11/08 11:43:56;;;;;;;33.20;22.85;;;28.40;65.60;;;;;;1781164;81;21216;-81
2022/11/08 11:46:45;;;;;;;31.35;22.73;;;28.40;65.70;;;;;;1774813;80;21196;-80
2022/11/08 11:49:18;;;;;;;28.98;21.65;;;28.40;66.20;;;;;;1705883;82;21656;-82
2022/11/08 11:51:53;;;;;;;30.05;22.35;;;28.40;66.20;;;;;;1744237;82;21120;-82
2022/11/08 11:54:36;;;;;;;28.92;20.43;;;28.30;66.40;;;;;;1774200;81;21162;-82
2022/11/08 11:57:10;;;;;;;29.32;21.87;;;28.30;66.40;;;;;;1772230;81;21147;-82
2022/11/08 12:00:04;;;;;;;30.70;22.07;;;28.30;66.80;;;;;;1770922;81;21780;-81
2022/11/08 12:02:50;;;;;;;29.25;21.80;;;28.30;67.10;;;;;;1760284;80;21156;-82
2022/11/08 12:05:29;;;;;;;28.63;22.63;;;28.30;67.10;;;;;;1762533;81;21645;-82
2022/11/08 12:08:20;;;;;;;29.52;21.70;;;28.20;67.30;;;;;;1754080;81;21162;-81
2022/11/08 12:11:19;;;;;;;31.42;22.15;;;28.20;67.80;;;;;;1764611;80;21179;-82
2022/11/08 12:14:13;;;;;;;34.13;23.32;;;28.20;68.20;;;;;;1762485;81;21567;-81
2022/11/08 12:16:50;;;;;;;32.75;23.62;;;28.10;68.50;;;;;;1776397;80;21074;-81
2022/11/08 12:19:32;;;;;;;32.28;23.12;;;28.10;68.80;;;;;;1772932;81;21227;-81
2022/11/08 12:22:24;;;;;;;35.75;24.85;;;28.10;69.10;;;;;;1776770;80;21507;-82
2022/11/08 12:25:03;;;;;;;32.63;24.20;;;28.10;69.50;;;;;;1776143;79;21174;-82
2022/11/08 12:27:37;;;;;;;34.33;24.30;;;28.00;69.60;;;;;;1776230;80;21173;-81
2022/11/08 12:30:34;;;;;;;32.58;24.40;;;28.00;69.80;;;;;;1776837;80;21189;-82
2022/11/08 12:33:27;;;;;;;32.93;23.92;;;27.90;69.90;;;;;;1746990;82;21128;-82
2022/11/08 12:36:16;;;;;;;33.10;24.02;;;27.90;69.60;;;;;;1746875;82;21182;-81
2022/11/08 12:39:08;;;;;;;33.73;24.87;;;27.80;69.70;;;;;;1770080;80;21168;-82
2022/11/08 12:41:59;;;;;;;31.45;24.67;;;27.80;69.50;;;;;;1776567;81;21164;-82
2022/11/08 12:45:01;;;;;;;29.57;23.18;;;27.80;69.70;;;;;;1769145;80;21110;-84
2022/11/08 12:47:53;;;;;;;29.90;23.42;;;27.70;69.40;;;;;;1773406;81;21228;-82
2022/11/08 12:50:32;;;;;;;30.90;23.35;;;27.70;69.30;;;;;;1774829;80;21222;-83
2022/11/08 12:53:08;;;;;;;30.65;22.77;;;27.70;69.40;;;;;;1761146;81;21154;-83
2022/11/08 12:55:42;;;;;;;29.77;24.72;;;27.70;69.40;;;;;;1742588;81;21703;-81
2022/11/08 12:58:30;;;;;;;35.23;24.47;;;27.70;69.30;;;;;;1740784;80;21221;-83
2022/11/08 13:01:05;;;;;;;32.83;24.25;;;27.70;69.30;;;;;;1735148;80;21130;-82
2022/11/08 13:03:50;;;;;;;35.28;25.57;;;27.60;69.30;;;;;;1729348;83;21112;-82
2022/11/08 13:06:33;;;;;;;35.70;25.88;;;27.60;69.30;;;;;;1729412;82;21091;-82
2022/11/08 13:09:16;;;;;;;35.80;25.92;;;27.60;69.60;;;;;;1673512;84;21195;-82
2022/11/08 13:12:01;;;;;;;32.28;26.15;;;27.50;69.70;;;;;;1698863;83;21252;-83
2022/11/08 13:14:33;;;;;;;34.03;25.55;;;27.50;69.80;;;;;;1728958;82;21154;-82
2022/11/08 13:17:25;;;;;;;33.50;26.77;;;27.50;70.00;;;;;;1727837;80;21193;-83
2022/11/08 13:19:57;;;;;;;35.70;27.02;;;27.50;70.30;;;;;;1751286;80;21200;-82
2022/11/08 13:22:32;;;;;;;37.85;27.73;;;27.40;70.20;;;;;;1729913;81;21209;-83
2022/11/08 13:25:14;;;;;;;40.73;27.95;;;27.40;70.30;;;;;;1724529;82;21178;-83
2022/11/08 13:27:47;;;;;;;36.90;26.85;;;27.40;70.30;;;;;;1731940;81;21153;-82
2022/11/08 13:30:20;;;;;;;39.73;27.67;;;27.40;70.20;;;;;;1722963;83;21135;-82
2022/11/08 13:33:02;;;;;;;39.05;26.20;;;27.30;70.10;;;;;;1737484;81;21209;-84
2022/11/08 13:35:50;;;;;;;34.50;26.48;;;27.30;70.10;;;;;;1726552;81;21653;-82